sensor_id;sensor_type;location;lat;lon;timestamp;P1;durP1;ratioP1;P2;durP2;ratioP2
43345;SDS011;28937;51.160;4.146;2023-07-20T00:00:30;11.70;;;3.83;;
43345;SDS011;28937;51.160;4.146;2023-07-20T00:03:09;8.05;;;3.20;;
43345;SDS011;28937;51.160;4.146;2023-07-20T00:05:37;8.75;;;3.67;;
43345;SDS011;28937;51.160;4.146;2023-07-20T00:08:03;19.73;;;3.83;;
43345;SDS011;28937;51.160;4.146;2023-07-20T00:10:29;7.00;;;3.33;;
43345;SDS011;28937;51.160;4.146;2023-07-20T00:12:54;10.40;;;3.05;;
43345;SDS011;28937;51.160;4.146;2023-07-20T00:15:20;9.65;;;3.25;;
43345;SDS011;28937;51.160;4.146;2023-07-20T00:17:45;9.40;;;3.58;;
43345;SDS011;28937;51.160;4.146;2023-07-20T00:20:11;9.88;;;3.97;;
43345;SDS011;28937;51.160;4.146;2023-07-20T00:22:36;10.73;;;3.38;;
43345;SDS011;28937;51.160;4.146;2023-07-20T00:25:02;9.32;;;3.15;;
43345;SDS011;28937;51.160;4.146;2023-07-20T00:27:28;7.95;;;3.25;;
43345;SDS011;28937;51.160;4.146;2023-07-20T00:29:54;10.25;;;3.42;;
43345;SDS011;28937;51.160;4.146;2023-07-20T00:32:19;9.00;;;3.10;;
43345;SDS011;28937;51.160;4.146;2023-07-20T00:34:45;7.45;;;3.10;;
43345;SDS011;28937;51.160;4.146;2023-07-20T00:37:10;12.38;;;3.95;;
43345;SDS011;28937;51.160;4.146;2023-07-20T00:39:36;10.85;;;3.35;;
43345;SDS011;28937;51.160;4.146;2023-07-20T00:42:02;10.75;;;3.63;;
43345;SDS011;28937;51.160;4.146;2023-07-20T00:44:27;8.93;;;3.03;;
43345;SDS011;28937;51.160;4.146;2023-07-20T00:46:53;7.60;;;3.17;;
43345;SDS011;28937;51.160;4.146;2023-07-20T00:49:18;8.93;;;3.17;;
43345;SDS011;28937;51.160;4.146;2023-07-20T00:51:47;8.23;;;3.13;;
43345;SDS011;28937;51.160;4.146;2023-07-20T00:54:14;8.70;;;3.40;;
43345;SDS011;28937;51.160;4.146;2023-07-20T00:56:40;10.85;;;4.03;;
43345;SDS011;28937;51.160;4.146;2023-07-20T00:59:09;8.68;;;3.22;;
43345;SDS011;28937;51.160;4.146;2023-07-20T01:01:35;9.35;;;3.53;;
43345;SDS011;28937;51.160;4.146;2023-07-20T01:04:00;8.63;;;3.53;;
43345;SDS011;28937;51.160;4.146;2023-07-20T01:09:14;6.78;;;3.33;;
43345;SDS011;28937;51.160;4.146;2023-07-20T01:11:54;8.50;;;3.38;;
43345;SDS011;28937;51.160;4.146;2023-07-20T01:14:25;9.13;;;3.95;;
43345;SDS011;28937;51.160;4.146;2023-07-20T01:16:51;10.70;;;4.18;;
43345;SDS011;28937;51.160;4.146;2023-07-20T01:19:19;7.22;;;3.42;;
43345;SDS011;28937;51.160;4.146;2023-07-20T01:21:48;6.97;;;3.63;;
43345;SDS011;28937;51.160;4.146;2023-07-20T01:32:41;8.25;;;4.43;;
43345;SDS011;28937;51.160;4.146;2023-07-20T01:35:08;8.13;;;3.85;;
43345;SDS011;28937;51.160;4.146;2023-07-20T01:37:35;9.32;;;4.35;;
43345;SDS011;28937;51.160;4.146;2023-07-20T01:40:03;7.55;;;3.88;;
43345;SDS011;28937;51.160;4.146;2023-07-20T01:42:29;7.15;;;3.80;;
43345;SDS011;28937;51.160;4.146;2023-07-20T01:44:55;7.38;;;3.70;;
43345;SDS011;28937;51.160;4.146;2023-07-20T01:47:20;7.40;;;4.30;;
43345;SDS011;28937;51.160;4.146;2023-07-20T01:49:46;8.75;;;4.40;;
43345;SDS011;28937;51.160;4.146;2023-07-20T01:52:12;9.98;;;4.53;;
43345;SDS011;28937;51.160;4.146;2023-07-20T01:54:37;7.80;;;4.13;;
43345;SDS011;28937;51.160;4.146;2023-07-20T01:57:03;8.73;;;4.07;;
43345;SDS011;28937;51.160;4.146;2023-07-20T01:59:29;9.80;;;4.18;;
43345;SDS011;28937;51.160;4.146;2023-07-20T02:01:54;7.43;;;4.50;;
43345;SDS011;28937;51.160;4.146;2023-07-20T02:04:20;7.50;;;4.10;;
43345;SDS011;28937;51.160;4.146;2023-07-20T02:06:45;10.32;;;4.72;;
43345;SDS011;28937;51.160;4.146;2023-07-20T02:09:11;8.23;;;4.30;;
43345;SDS011;28937;51.160;4.146;2023-07-20T02:11:36;7.20;;;4.25;;
43345;SDS011;28937;51.160;4.146;2023-07-20T02:14:02;7.25;;;4.10;;
43345;SDS011;28937;51.160;4.146;2023-07-20T02:16:27;9.88;;;4.35;;
43345;SDS011;28937;51.160;4.146;2023-07-20T02:18:53;6.53;;;3.70;;
43345;SDS011;28937;51.160;4.146;2023-07-20T02:21:21;6.90;;;4.30;;
43345;SDS011;28937;51.160;4.146;2023-07-20T02:23:48;8.02;;;4.22;;
43345;SDS011;28937;51.160;4.146;2023-07-20T02:26:13;7.43;;;4.35;;
43345;SDS011;28937;51.160;4.146;2023-07-20T02:28:39;7.97;;;4.07;;
43345;SDS011;28937;51.160;4.146;2023-07-20T02:31:06;6.10;;;4.20;;
43345;SDS011;28937;51.160;4.146;2023-07-20T02:33:32;8.98;;;4.18;;
43345;SDS011;28937;51.160;4.146;2023-07-20T02:35:57;7.30;;;4.30;;
43345;SDS011;28937;51.160;4.146;2023-07-20T02:38:23;6.95;;;4.32;;
43345;SDS011;28937;51.160;4.146;2023-07-20T02:40:49;8.15;;;4.53;;
43345;SDS011;28937;51.160;4.146;2023-07-20T02:43:14;8.45;;;4.88;;
43345;SDS011;28937;51.160;4.146;2023-07-20T02:45:40;6.93;;;4.55;;
43345;SDS011;28937;51.160;4.146;2023-07-20T02:48:09;7.07;;;4.50;;
43345;SDS011;28937;51.160;4.146;2023-07-20T02:50:35;7.00;;;4.53;;
43345;SDS011;28937;51.160;4.146;2023-07-20T02:53:01;5.93;;;4.53;;
43345;SDS011;28937;51.160;4.146;2023-07-20T02:55:27;8.85;;;5.10;;
43345;SDS011;28937;51.160;4.146;2023-07-20T02:57:52;8.40;;;5.22;;
43345;SDS011;28937;51.160;4.146;2023-07-20T03:00:18;9.00;;;5.10;;
43345;SDS011;28937;51.160;4.146;2023-07-20T03:02:48;9.45;;;5.22;;
43345;SDS011;28937;51.160;4.146;2023-07-20T03:05:14;7.47;;;4.53;;
43345;SDS011;28937;51.160;4.146;2023-07-20T03:07:41;6.13;;;5.05;;
43345;SDS011;28937;51.160;4.146;2023-07-20T03:10:08;8.50;;;5.88;;
43345;SDS011;28937;51.160;4.146;2023-07-20T03:12:34;8.05;;;4.80;;
43345;SDS011;28937;51.160;4.146;2023-07-20T03:15:01;7.97;;;5.32;;
43345;SDS011;28937;51.160;4.146;2023-07-20T03:17:27;10.27;;;5.72;;
43345;SDS011;28937;51.160;4.146;2023-07-20T03:19:53;6.10;;;5.25;;
43345;SDS011;28937;51.160;4.146;2023-07-20T03:22:19;11.18;;;6.60;;
43345;SDS011;28937;51.160;4.146;2023-07-20T03:24:46;9.60;;;5.57;;
43345;SDS011;28937;51.160;4.146;2023-07-20T03:27:12;9.73;;;5.88;;
43345;SDS011;28937;51.160;4.146;2023-07-20T03:29:37;7.78;;;5.10;;
43345;SDS011;28937;51.160;4.146;2023-07-20T03:32:03;9.30;;;5.85;;
43345;SDS011;28937;51.160;4.146;2023-07-20T03:34:29;8.50;;;6.72;;
43345;SDS011;28937;51.160;4.146;2023-07-20T03:36:55;9.05;;;5.68;;
43345;SDS011;28937;51.160;4.146;2023-07-20T03:39:21;7.28;;;5.57;;
43345;SDS011;28937;51.160;4.146;2023-07-20T03:41:47;9.07;;;6.50;;
43345;SDS011;28937;51.160;4.146;2023-07-20T03:44:13;8.85;;;6.13;;
43345;SDS011;28937;51.160;4.146;2023-07-20T03:46:38;7.40;;;6.53;;
43345;SDS011;28937;51.160;4.146;2023-07-20T03:49:04;8.90;;;5.43;;
43345;SDS011;28937;51.160;4.146;2023-07-20T03:51:31;8.30;;;5.72;;
43345;SDS011;28937;51.160;4.146;2023-07-20T03:53:56;5.95;;;5.35;;
43345;SDS011;28937;51.160;4.146;2023-07-20T03:56:22;8.38;;;5.07;;
43345;SDS011;28937;51.160;4.146;2023-07-20T03:58:49;9.63;;;6.88;;
43345;SDS011;28937;51.160;4.146;2023-07-20T04:01:14;7.13;;;5.38;;
43345;SDS011;28937;51.160;4.146;2023-07-20T04:03:41;8.10;;;6.25;;
43345;SDS011;28937;51.160;4.146;2023-07-20T04:06:08;9.13;;;6.05;;
43345;SDS011;28937;51.160;4.146;2023-07-20T04:08:33;7.20;;;5.60;;
43345;SDS011;28937;51.160;4.146;2023-07-20T04:11:03;6.95;;;5.65;;
43345;SDS011;28937;51.160;4.146;2023-07-20T04:13:28;7.07;;;5.68;;
43345;SDS011;28937;51.160;4.146;2023-07-20T04:15:59;8.35;;;5.75;;
43345;SDS011;28937;51.160;4.146;2023-07-20T04:18:25;7.72;;;5.75;;
43345;SDS011;28937;51.160;4.146;2023-07-20T04:20:50;6.03;;;5.03;;
43345;SDS011;28937;51.160;4.146;2023-07-20T04:23:16;6.68;;;5.85;;
43345;SDS011;28937;51.160;4.146;2023-07-20T04:25:42;8.65;;;5.53;;
43345;SDS011;28937;51.160;4.146;2023-07-20T04:28:07;6.53;;;5.15;;
43345;SDS011;28937;51.160;4.146;2023-07-20T04:30:36;8.55;;;4.97;;
43345;SDS011;28937;51.160;4.146;2023-07-20T04:33:03;6.90;;;6.03;;
43345;SDS011;28937;51.160;4.146;2023-07-20T04:38:14;5.38;;;4.03;;
43345;SDS011;28937;51.160;4.146;2023-07-20T04:40:42;6.45;;;4.85;;
43345;SDS011;28937;51.160;4.146;2023-07-20T04:43:11;5.57;;;4.47;;
43345;SDS011;28937;51.160;4.146;2023-07-20T04:45:37;5.28;;;4.72;;
43345;SDS011;28937;51.160;4.146;2023-07-20T04:48:03;5.13;;;4.50;;
43345;SDS011;28937;51.160;4.146;2023-07-20T04:50:31;6.10;;;4.43;;
43345;SDS011;28937;51.160;4.146;2023-07-20T04:52:57;8.35;;;5.05;;
43345;SDS011;28937;51.160;4.146;2023-07-20T04:55:22;6.05;;;4.90;;
43345;SDS011;28937;51.160;4.146;2023-07-20T04:57:48;6.43;;;5.30;;
43345;SDS011;28937;51.160;4.146;2023-07-20T05:00:14;7.05;;;5.20;;
43345;SDS011;28937;51.160;4.146;2023-07-20T05:02:40;6.68;;;4.70;;
43345;SDS011;28937;51.160;4.146;2023-07-20T05:05:05;7.22;;;4.28;;
43345;SDS011;28937;51.160;4.146;2023-07-20T05:07:31;6.90;;;4.97;;
43345;SDS011;28937;51.160;4.146;2023-07-20T05:09:57;6.10;;;4.20;;
43345;SDS011;28937;51.160;4.146;2023-07-20T05:12:23;5.00;;;4.25;;
43345;SDS011;28937;51.160;4.146;2023-07-20T05:14:48;6.30;;;4.57;;
43345;SDS011;28937;51.160;4.146;2023-07-20T05:17:14;6.47;;;4.63;;
43345;SDS011;28937;51.160;4.146;2023-07-20T05:19:39;5.95;;;4.30;;
43345;SDS011;28937;51.160;4.146;2023-07-20T05:22:05;5.28;;;3.78;;
43345;SDS011;28937;51.160;4.146;2023-07-20T05:24:31;4.68;;;4.03;;
43345;SDS011;28937;51.160;4.146;2023-07-20T05:26:57;5.07;;;4.15;;
43345;SDS011;28937;51.160;4.146;2023-07-20T05:29:23;3.95;;;3.42;;
43345;SDS011;28937;51.160;4.146;2023-07-20T05:31:49;5.93;;;4.07;;
43345;SDS011;28937;51.160;4.146;2023-07-20T05:34:14;5.10;;;3.45;;
43345;SDS011;28937;51.160;4.146;2023-07-20T05:36:40;5.78;;;3.75;;
43345;SDS011;28937;51.160;4.146;2023-07-20T05:39:06;6.78;;;3.92;;
43345;SDS011;28937;51.160;4.146;2023-07-20T05:41:31;4.00;;;3.22;;
43345;SDS011;28937;51.160;4.146;2023-07-20T05:43:57;5.35;;;4.13;;
43345;SDS011;28937;51.160;4.146;2023-07-20T05:46:22;8.88;;;3.53;;
43345;SDS011;28937;51.160;4.146;2023-07-20T05:48:49;3.47;;;2.85;;
43345;SDS011;28937;51.160;4.146;2023-07-20T05:51:15;5.80;;;3.13;;
43345;SDS011;28937;51.160;4.146;2023-07-20T05:53:40;3.88;;;2.72;;
43345;SDS011;28937;51.160;4.146;2023-07-20T05:56:06;5.35;;;2.30;;
43345;SDS011;28937;51.160;4.146;2023-07-20T05:58:35;2.70;;;1.85;;
43345;SDS011;28937;51.160;4.146;2023-07-20T06:01:01;4.18;;;2.22;;
43345;SDS011;28937;51.160;4.146;2023-07-20T06:03:30;3.58;;;1.65;;
43345;SDS011;28937;51.160;4.146;2023-07-20T06:06:02;3.28;;;1.88;;
43345;SDS011;28937;51.160;4.146;2023-07-20T06:08:29;2.67;;;2.00;;
43345;SDS011;28937;51.160;4.146;2023-07-20T06:10:55;2.40;;;1.48;;
43345;SDS011;28937;51.160;4.146;2023-07-20T06:13:21;2.85;;;1.70;;
43345;SDS011;28937;51.160;4.146;2023-07-20T06:15:46;2.85;;;2.00;;
43345;SDS011;28937;51.160;4.146;2023-07-20T06:18:12;2.47;;;1.50;;
43345;SDS011;28937;51.160;4.146;2023-07-20T06:20:38;6.80;;;1.40;;
43345;SDS011;28937;51.160;4.146;2023-07-20T06:23:04;3.13;;;1.58;;
43345;SDS011;28937;51.160;4.146;2023-07-20T06:25:29;3.50;;;1.23;;
43345;SDS011;28937;51.160;4.146;2023-07-20T06:27:55;0.82;;;0.60;;
43345;SDS011;28937;51.160;4.146;2023-07-20T06:30:21;2.53;;;1.10;;
43345;SDS011;28937;51.160;4.146;2023-07-20T06:32:47;0.93;;;0.43;;
43345;SDS011;28937;51.160;4.146;2023-07-20T06:35:13;2.60;;;0.55;;
43345;SDS011;28937;51.160;4.146;2023-07-20T06:37:39;2.13;;;0.40;;
43345;SDS011;28937;51.160;4.146;2023-07-20T06:40:05;2.60;;;0.88;;
43345;SDS011;28937;51.160;4.146;2023-07-20T06:42:33;2.30;;;0.73;;
43345;SDS011;28937;51.160;4.146;2023-07-20T06:44:59;2.08;;;1.20;;
43345;SDS011;28937;51.160;4.146;2023-07-20T06:47:25;2.92;;;0.80;;
43345;SDS011;28937;51.160;4.146;2023-07-20T06:49:50;1.60;;;0.60;;
43345;SDS011;28937;51.160;4.146;2023-07-20T06:52:16;1.35;;;0.65;;
43345;SDS011;28937;51.160;4.146;2023-07-20T06:54:41;0.80;;;0.55;;
43345;SDS011;28937;51.160;4.146;2023-07-20T06:57:07;1.60;;;0.60;;
43345;SDS011;28937;51.160;4.146;2023-07-20T06:59:32;1.15;;;0.22;;
43345;SDS011;28937;51.160;4.146;2023-07-20T07:01:58;0.22;;;0.00;;
43345;SDS011;28937;51.160;4.146;2023-07-20T07:04:24;1.80;;;0.20;;
43345;SDS011;28937;51.160;4.146;2023-07-20T07:06:49;0.85;;;0.20;;
43345;SDS011;28937;51.160;4.146;2023-07-20T07:09:15;1.02;;;0.20;;
43345;SDS011;28937;51.160;4.146;2023-07-20T07:11:41;1.27;;;0.20;;
43345;SDS011;28937;51.160;4.146;2023-07-20T07:14:06;1.20;;;0.20;;
43345;SDS011;28937;51.160;4.146;2023-07-20T07:16:32;2.17;;;0.30;;
43345;SDS011;28937;51.160;4.146;2023-07-20T07:18:57;1.23;;;0.30;;
43345;SDS011;28937;51.160;4.146;2023-07-20T07:21:23;1.70;;;0.43;;
43345;SDS011;28937;51.160;4.146;2023-07-20T07:23:50;1.83;;;0.63;;
43345;SDS011;28937;51.160;4.146;2023-07-20T07:26:18;1.25;;;0.28;;
43345;SDS011;28937;51.160;4.146;2023-07-20T07:28:44;1.27;;;0.10;;
43345;SDS011;28937;51.160;4.146;2023-07-20T07:31:09;1.52;;;0.20;;
43345;SDS011;28937;51.160;4.146;2023-07-20T07:33:35;1.55;;;0.40;;
43345;SDS011;28937;51.160;4.146;2023-07-20T07:36:01;1.58;;;0.32;;
43345;SDS011;28937;51.160;4.146;2023-07-20T07:38:26;1.98;;;0.30;;
43345;SDS011;28937;51.160;4.146;2023-07-20T07:40:52;4.20;;;0.40;;
43345;SDS011;28937;51.160;4.146;2023-07-20T07:43:17;0.80;;;0.20;;
43345;SDS011;28937;51.160;4.146;2023-07-20T07:45:43;0.40;;;0.20;;
43345;SDS011;28937;51.160;4.146;2023-07-20T07:48:08;0.77;;;0.30;;
43345;SDS011;28937;51.160;4.146;2023-07-20T07:50:36;0.93;;;0.20;;
43345;SDS011;28937;51.160;4.146;2023-07-20T07:53:03;0.43;;;0.10;;
43345;SDS011;28937;51.160;4.146;2023-07-20T07:55:28;0.57;;;0.10;;
43345;SDS011;28937;51.160;4.146;2023-07-20T07:57:54;2.55;;;0.30;;
43345;SDS011;28937;51.160;4.146;2023-07-20T08:00:20;0.98;;;0.13;;
43345;SDS011;28937;51.160;4.146;2023-07-20T08:02:45;0.70;;;0.25;;
43345;SDS011;28937;51.160;4.146;2023-07-20T08:05:13;0.32;;;0.00;;
43345;SDS011;28937;51.160;4.146;2023-07-20T08:07:39;0.47;;;0.10;;
43345;SDS011;28937;51.160;4.146;2023-07-20T08:10:05;1.33;;;0.35;;
43345;SDS011;28937;51.160;4.146;2023-07-20T08:12:31;2.45;;;0.17;;
43345;SDS011;28937;51.160;4.146;2023-07-20T08:14:57;1.35;;;0.00;;
43345;SDS011;28937;51.160;4.146;2023-07-20T08:17:22;2.42;;;0.00;;
43345;SDS011;28937;51.160;4.146;2023-07-20T08:19:48;0.70;;;0.30;;
43345;SDS011;28937;51.160;4.146;2023-07-20T08:22:13;1.95;;;0.10;;
43345;SDS011;28937;51.160;4.146;2023-07-20T08:24:39;1.13;;;0.08;;
43345;SDS011;28937;51.160;4.146;2023-07-20T08:27:05;1.95;;;0.17;;
43345;SDS011;28937;51.160;4.146;2023-07-20T08:29:31;0.73;;;0.10;;
43345;SDS011;28937;51.160;4.146;2023-07-20T08:31:57;1.27;;;0.10;;
43345;SDS011;28937;51.160;4.146;2023-07-20T08:34:22;0.38;;;0.10;;
43345;SDS011;28937;51.160;4.146;2023-07-20T08:36:48;0.73;;;0.20;;
43345;SDS011;28937;51.160;4.146;2023-07-20T08:39:13;0.98;;;0.10;;
43345;SDS011;28937;51.160;4.146;2023-07-20T08:41:39;2.50;;;0.20;;
43345;SDS011;28937;51.160;4.146;2023-07-20T08:44:07;1.08;;;0.10;;
43345;SDS011;28937;51.160;4.146;2023-07-20T08:46:33;0.80;;;0.00;;
43345;SDS011;28937;51.160;4.146;2023-07-20T08:49:00;0.85;;;0.00;;
43345;SDS011;28937;51.160;4.146;2023-07-20T08:51:27;1.20;;;0.00;;
43345;SDS011;28937;51.160;4.146;2023-07-20T08:53:55;0.82;;;0.10;;
43345;SDS011;28937;51.160;4.146;2023-07-20T08:56:20;0.60;;;0.22;;
43345;SDS011;28937;51.160;4.146;2023-07-20T08:58:49;0.50;;;0.13;;
43345;SDS011;28937;51.160;4.146;2023-07-20T09:01:16;0.65;;;0.17;;
43345;SDS011;28937;51.160;4.146;2023-07-20T09:03:43;0.57;;;0.00;;
43345;SDS011;28937;51.160;4.146;2023-07-20T09:06:10;0.20;;;0.10;;
43345;SDS011;28937;51.160;4.146;2023-07-20T09:08:42;0.82;;;0.13;;
43345;SDS011;28937;51.160;4.146;2023-07-20T09:11:08;0.70;;;0.20;;
43345;SDS011;28937;51.160;4.146;2023-07-20T09:13:37;0.30;;;0.20;;
43345;SDS011;28937;51.160;4.146;2023-07-20T09:16:03;1.42;;;0.15;;
43345;SDS011;28937;51.160;4.146;2023-07-20T09:18:30;1.80;;;0.15;;
43345;SDS011;28937;51.160;4.146;2023-07-20T09:21:03;3.90;;;0.13;;
43345;SDS011;28937;51.160;4.146;2023-07-20T09:23:37;0.57;;;0.20;;
43345;SDS011;28937;51.160;4.146;2023-07-20T09:26:11;0.70;;;0.10;;
43345;SDS011;28937;51.160;4.146;2023-07-20T09:28:41;0.70;;;0.30;;
43345;SDS011;28937;51.160;4.146;2023-07-20T09:31:15;0.30;;;0.15;;
43345;SDS011;28937;51.160;4.146;2023-07-20T09:33:46;1.92;;;0.10;;
43345;SDS011;28937;51.160;4.146;2023-07-20T09:36:12;0.22;;;0.08;;
43345;SDS011;28937;51.160;4.146;2023-07-20T09:38:39;1.20;;;0.22;;
43345;SDS011;28937;51.160;4.146;2023-07-20T09:41:06;0.52;;;0.30;;
43345;SDS011;28937;51.160;4.146;2023-07-20T09:43:36;0.90;;;0.22;;
43345;SDS011;28937;51.160;4.146;2023-07-20T09:46:02;1.83;;;0.20;;
43345;SDS011;28937;51.160;4.146;2023-07-20T09:48:27;0.38;;;0.20;;
43345;SDS011;28937;51.160;4.146;2023-07-20T09:50:55;1.13;;;0.20;;
43345;SDS011;28937;51.160;4.146;2023-07-20T09:53:21;0.57;;;0.20;;
43345;SDS011;28937;51.160;4.146;2023-07-20T09:55:50;0.40;;;0.10;;
43345;SDS011;28937;51.160;4.146;2023-07-20T09:58:18;0.60;;;0.10;;
43345;SDS011;28937;51.160;4.146;2023-07-20T10:00:44;0.77;;;0.38;;
43345;SDS011;28937;51.160;4.146;2023-07-20T10:03:22;14.35;;;2.42;;
43345;SDS011;28937;51.160;4.146;2023-07-20T10:05:54;3.13;;;0.82;;
43345;SDS011;28937;51.160;4.146;2023-07-20T10:08:25;1.52;;;0.30;;
43345;SDS011;28937;51.160;4.146;2023-07-20T10:10:51;1.15;;;0.10;;
43345;SDS011;28937;51.160;4.146;2023-07-20T10:13:17;0.30;;;0.10;;
43345;SDS011;28937;51.160;4.146;2023-07-20T10:15:54;0.63;;;0.10;;
43345;SDS011;28937;51.160;4.146;2023-07-20T10:18:22;0.30;;;0.00;;
43345;SDS011;28937;51.160;4.146;2023-07-20T10:20:59;0.10;;;0.00;;
43345;SDS011;28937;51.160;4.146;2023-07-20T10:23:28;0.30;;;0.20;;
43345;SDS011;28937;51.160;4.146;2023-07-20T10:25:54;1.48;;;0.20;;
43345;SDS011;28937;51.160;4.146;2023-07-20T10:28:20;1.27;;;0.20;;
43345;SDS011;28937;51.160;4.146;2023-07-20T10:30:48;1.20;;;0.35;;
43345;SDS011;28937;51.160;4.146;2023-07-20T10:33:15;1.20;;;0.32;;
43345;SDS011;28937;51.160;4.146;2023-07-20T10:35:50;1.05;;;0.30;;
43345;SDS011;28937;51.160;4.146;2023-07-20T10:40:41;1.05;;;0.40;;
43345;SDS011;28937;51.160;4.146;2023-07-20T10:43:07;1.25;;;0.47;;
43345;SDS011;28937;51.160;4.146;2023-07-20T10:48:24;1.10;;;1.00;;
43345;SDS011;28937;51.160;4.146;2023-07-20T10:51:09;1.25;;;0.90;;
43345;SDS011;28937;51.160;4.146;2023-07-20T10:53:39;1.48;;;0.77;;
43345;SDS011;28937;51.160;4.146;2023-07-20T10:56:05;1.50;;;1.27;;
43345;SDS011;28937;51.160;4.146;2023-07-20T10:58:33;1.30;;;1.20;;
43345;SDS011;28937;51.160;4.146;2023-07-20T11:01:02;1.45;;;1.35;;
43345;SDS011;28937;51.160;4.146;2023-07-20T11:03:33;1.75;;;1.42;;
43345;SDS011;28937;51.160;4.146;2023-07-20T11:06:00;2.33;;;1.38;;
43345;SDS011;28937;51.160;4.146;2023-07-20T11:08:48;0.90;;;0.50;;
43345;SDS011;28937;51.160;4.146;2023-07-20T11:11:24;1.42;;;0.70;;
43345;SDS011;28937;51.160;4.146;2023-07-20T11:14:01;1.55;;;1.30;;
43345;SDS011;28937;51.160;4.146;2023-07-20T11:16:32;1.50;;;1.40;;
43345;SDS011;28937;51.160;4.146;2023-07-20T11:18:58;1.42;;;1.27;;
43345;SDS011;28937;51.160;4.146;2023-07-20T11:21:24;0.93;;;0.88;;
43345;SDS011;28937;51.160;4.146;2023-07-20T11:23:51;2.15;;;1.10;;
43345;SDS011;28937;51.160;4.146;2023-07-20T11:26:17;1.52;;;1.42;;
43345;SDS011;28937;51.160;4.146;2023-07-20T11:28:47;1.55;;;1.20;;
43345;SDS011;28937;51.160;4.146;2023-07-20T11:31:14;2.15;;;1.05;;
43345;SDS011;28937;51.160;4.146;2023-07-20T11:33:42;0.70;;;0.70;;
43345;SDS011;28937;51.160;4.146;2023-07-20T11:36:08;0.50;;;0.40;;
43345;SDS011;28937;51.160;4.146;2023-07-20T11:38:34;3.13;;;0.60;;
43345;SDS011;28937;51.160;4.146;2023-07-20T11:41:00;1.23;;;0.40;;
43345;SDS011;28937;51.160;4.146;2023-07-20T11:43:27;2.45;;;0.93;;
43345;SDS011;28937;51.160;4.146;2023-07-20T11:45:53;3.58;;;1.00;;
43345;SDS011;28937;51.160;4.146;2023-07-20T11:48:18;0.90;;;0.82;;
43345;SDS011;28937;51.160;4.146;2023-07-20T11:50:44;1.20;;;1.10;;
43345;SDS011;28937;51.160;4.146;2023-07-20T11:53:09;1.38;;;1.20;;
43345;SDS011;28937;51.160;4.146;2023-07-20T11:55:36;1.65;;;1.00;;
43345;SDS011;28937;51.160;4.146;2023-07-20T11:58:04;1.33;;;0.93;;
43345;SDS011;28937;51.160;4.146;2023-07-20T12:00:31;1.40;;;0.95;;
43345;SDS011;28937;51.160;4.146;2023-07-20T12:03:04;1.27;;;1.17;;
43345;SDS011;28937;51.160;4.146;2023-07-20T12:05:32;1.13;;;1.02;;
43345;SDS011;28937;51.160;4.146;2023-07-20T12:07:57;1.40;;;1.13;;
43345;SDS011;28937;51.160;4.146;2023-07-20T12:10:26;1.20;;;1.10;;
43345;SDS011;28937;51.160;4.146;2023-07-20T12:13:00;1.85;;;1.00;;
43345;SDS011;28937;51.160;4.146;2023-07-20T12:15:30;1.95;;;0.85;;
43345;SDS011;28937;51.160;4.146;2023-07-20T12:17:58;1.10;;;0.70;;
43345;SDS011;28937;51.160;4.146;2023-07-20T12:20:29;0.90;;;0.90;;
43345;SDS011;28937;51.160;4.146;2023-07-20T12:22:58;0.70;;;0.70;;
43345;SDS011;28937;51.160;4.146;2023-07-20T12:25:32;1.58;;;0.90;;
43345;SDS011;28937;51.160;4.146;2023-07-20T12:28:19;2.28;;;0.82;;
43345;SDS011;28937;51.160;4.146;2023-07-20T12:30:45;1.33;;;0.70;;
43345;SDS011;28937;51.160;4.146;2023-07-20T12:33:12;0.85;;;0.85;;
43345;SDS011;28937;51.160;4.146;2023-07-20T12:35:40;1.20;;;1.00;;
43345;SDS011;28937;51.160;4.146;2023-07-20T12:38:08;2.72;;;1.13;;
43345;SDS011;28937;51.160;4.146;2023-07-20T12:40:34;1.58;;;0.80;;
43345;SDS011;28937;51.160;4.146;2023-07-20T12:43:00;1.00;;;0.90;;
43345;SDS011;28937;51.160;4.146;2023-07-20T12:45:25;1.52;;;1.20;;
43345;SDS011;28937;51.160;4.146;2023-07-20T12:47:51;1.30;;;1.00;;
43345;SDS011;28937;51.160;4.146;2023-07-20T12:50:17;1.10;;;0.80;;
43345;SDS011;28937;51.160;4.146;2023-07-20T12:52:42;1.42;;;0.80;;
43345;SDS011;28937;51.160;4.146;2023-07-20T12:55:09;2.25;;;0.80;;
43345;SDS011;28937;51.160;4.146;2023-07-20T12:57:35;0.90;;;0.70;;
43345;SDS011;28937;51.160;4.146;2023-07-20T13:00:02;1.20;;;0.95;;
43345;SDS011;28937;51.160;4.146;2023-07-20T13:02:29;1.13;;;0.90;;
43345;SDS011;28937;51.160;4.146;2023-07-20T13:04:56;1.00;;;0.70;;
43345;SDS011;28937;51.160;4.146;2023-07-20T13:07:29;1.25;;;0.68;;
43345;SDS011;28937;51.160;4.146;2023-07-20T13:09:59;2.15;;;1.02;;
43345;SDS011;28937;51.160;4.146;2023-07-20T13:12:26;0.73;;;0.65;;
43345;SDS011;28937;51.160;4.146;2023-07-20T13:14:52;1.27;;;0.80;;
43345;SDS011;28937;51.160;4.146;2023-07-20T13:17:18;2.42;;;1.20;;
43345;SDS011;28937;51.160;4.146;2023-07-20T13:19:43;1.20;;;0.60;;
43345;SDS011;28937;51.160;4.146;2023-07-20T13:22:09;0.88;;;0.80;;
43345;SDS011;28937;51.160;4.146;2023-07-20T13:24:35;1.05;;;0.80;;
43345;SDS011;28937;51.160;4.146;2023-07-20T13:27:01;2.13;;;1.10;;
43345;SDS011;28937;51.160;4.146;2023-07-20T13:29:27;0.93;;;0.50;;
43345;SDS011;28937;51.160;4.146;2023-07-20T13:31:52;0.95;;;0.60;;
43345;SDS011;28937;51.160;4.146;2023-07-20T13:34:18;0.75;;;0.68;;
43345;SDS011;28937;51.160;4.146;2023-07-20T13:36:43;0.70;;;0.50;;
43345;SDS011;28937;51.160;4.146;2023-07-20T13:39:09;1.67;;;0.63;;
43345;SDS011;28937;51.160;4.146;2023-07-20T13:41:35;1.00;;;0.47;;
43345;SDS011;28937;51.160;4.146;2023-07-20T13:44:00;1.25;;;0.47;;
43345;SDS011;28937;51.160;4.146;2023-07-20T13:46:26;0.85;;;0.57;;
43345;SDS011;28937;51.160;4.146;2023-07-20T13:48:52;2.03;;;0.65;;
43345;SDS011;28937;51.160;4.146;2023-07-20T13:51:17;1.33;;;0.60;;
43345;SDS011;28937;51.160;4.146;2023-07-20T13:53:45;1.13;;;0.40;;
43345;SDS011;28937;51.160;4.146;2023-07-20T13:56:11;1.63;;;0.40;;
43345;SDS011;28937;51.160;4.146;2023-07-20T13:58:37;0.80;;;0.50;;
43345;SDS011;28937;51.160;4.146;2023-07-20T14:01:02;1.38;;;0.60;;
43345;SDS011;28937;51.160;4.146;2023-07-20T14:03:28;2.15;;;0.60;;
43345;SDS011;28937;51.160;4.146;2023-07-20T14:05:54;0.82;;;0.45;;
43345;SDS011;28937;51.160;4.146;2023-07-20T14:08:20;1.05;;;0.60;;
43345;SDS011;28937;51.160;4.146;2023-07-20T14:10:46;0.80;;;0.52;;
43345;SDS011;28937;51.160;4.146;2023-07-20T14:13:11;1.23;;;0.63;;
43345;SDS011;28937;51.160;4.146;2023-07-20T14:15:38;1.63;;;0.85;;
43345;SDS011;28937;51.160;4.146;2023-07-20T14:18:04;1.38;;;0.65;;
43345;SDS011;28937;51.160;4.146;2023-07-20T14:20:29;0.68;;;0.40;;
43345;SDS011;28937;51.160;4.146;2023-07-20T14:22:55;1.40;;;0.65;;
43345;SDS011;28937;51.160;4.146;2023-07-20T14:25:20;0.82;;;0.30;;
43345;SDS011;28937;51.160;4.146;2023-07-20T14:27:46;1.23;;;0.50;;
43345;SDS011;28937;51.160;4.146;2023-07-20T14:30:12;0.90;;;0.40;;
43345;SDS011;28937;51.160;4.146;2023-07-20T14:32:38;1.15;;;0.68;;
43345;SDS011;28937;51.160;4.146;2023-07-20T14:35:04;1.45;;;0.40;;
43345;SDS011;28937;51.160;4.146;2023-07-20T14:37:31;1.15;;;0.30;;
43345;SDS011;28937;51.160;4.146;2023-07-20T14:39:57;1.33;;;0.15;;
43345;SDS011;28937;51.160;4.146;2023-07-20T14:42:22;1.13;;;0.30;;
43345;SDS011;28937;51.160;4.146;2023-07-20T14:44:48;1.77;;;0.38;;
43345;SDS011;28937;51.160;4.146;2023-07-20T14:47:13;0.63;;;0.10;;
43345;SDS011;28937;51.160;4.146;2023-07-20T14:49:39;0.70;;;0.20;;
43345;SDS011;28937;51.160;4.146;2023-07-20T14:52:05;0.88;;;0.32;;
43345;SDS011;28937;51.160;4.146;2023-07-20T14:54:30;1.25;;;0.20;;
43345;SDS011;28937;51.160;4.146;2023-07-20T14:56:56;1.65;;;0.40;;
43345;SDS011;28937;51.160;4.146;2023-07-20T14:59:22;0.45;;;0.32;;
43345;SDS011;28937;51.160;4.146;2023-07-20T15:01:48;1.00;;;0.40;;
43345;SDS011;28937;51.160;4.146;2023-07-20T15:04:14;1.40;;;0.50;;